Tiempo atmosférico en la estación meteorológica de Montanejos, Castelló/Castellón (601 m.)



Fecha
DESCASC
Temp. máxima en grados centígrados (hora)
DESCASC
Temp. mínima en grados centígrados (hora)
DESCASC
Temp. media en grados centígrados
DESCASC
Racha de viento máxima en m/sg (hora)
DESCASC
Velocidad máxima media en intervalos de 10 minutos(hora)
DESCASC
Precipitaciones diarias en mm
DESCASC
Precipitaciones de 00:00 a 06:00 en mm
DESCASC
Precipitaciones de 06:00 a 12:00 en mm
DESCASC
Precipitaciones de 12:00 a 18:00 en mm
DESCASC
Precipitaciones de 18:00 a 24:00 en mm
DESCASC
15-08-2019 30 (14:00) 18 (08:20) 24 11.94 (15:50) 6.39 (15:20) 0 0 0 0 0
14-08-2019 30.4 (14:10) 15.7 (00:00) 23 12.5 (15:10) 6.67 (15:10) 0 0 0 0 0
13-08-2019 25.7 (16:20) 17.9 (00:00) 21.8 8.89 (15:20) 5 (15:20) 3.2 0 0 3.2 0
12-08-2019 28.4 (14:10) 19.4 (00:00) 23.9 10 (17:00) 5.56 (15:00) 0 0 0 0 0
11-08-2019 32.3 (14:50) 19.4 (00:00) 25.8 11.94 (15:50) 6.11 (15:10) 0 0 0 0 0
10-08-2019 31.9 (11:50) 21.7 (00:00) 26.8 11.39 (12:50) 5.83 (15:20) 0 0 0 0 0
09-08-2019 38.1 (15:50) 19.5 (00:00) 28.8 10 (19:00) 5 (18:30) 0 0 0 0 0
08-08-2019 34 (13:50) 19.7 (00:00) 26.9 10.56 (16:30) 5.56 (15:10) 0 0 0 0 0
07-08-2019 33.4 (15:00) 19.2 (00:00) 26.3 10 (18:20) 6.67 (18:20) 0 0 0 0 0
06-08-2019 33.7 (17:20) 19.8 (00:00) 26.8 9.17 (12:30) 5.28 (12:40) 0 0 0 0 0
05-08-2019 32.2 (15:30) 19 (00:00) 25.6 9.72 (19:00) 5.28 (18:40) 0 0 0 0 0
04-08-2019 31 (15:40) 18.4 (00:00) 24.7 10.83 (16:30) 5.28 (11:10) 0 0 0 0 0
03-08-2019 31.8 (16:20) 17.3 (00:00) 24.5 10 (17:20) 5 (12:30) 0 0 0 0 0
02-08-2019 30.2 (14:40) 18.2 (00:00) 24.2 12.22 (16:50) 5.83 (16:50) 0 0 0 0 0
01-08-2019 29.5 (13:50) 18.1 (00:00) 23.8 10 (15:40) 5.28 (16:20) 0 0 0 0 0
31-07-2019 24.8 (13:10) 17 (00:00) 20.9 10.28 (11:20) 5.28 (11:10) 0 0 0 0 0
30-07-2019 29.3 (15:00) 17.8 (00:00) 23.5 11.94 (17:40) 6.11 (15:40) 0 0 0 0 0
29-07-2019 31.7 (14:20) 15.7 (00:00) 23.7 10.56 (17:10) 5 (16:00) 0 0 0 0 0
28-07-2019 29.5 (15:00) 16.8 (00:00) 23.1 11.67 (16:30) 6.39 (03:10) 0 0 0 0 0
27-07-2019 30 (17:40) 16.8 (00:00) 23.4 11.39 (22:20) 7.5 (22:10) 0 0 0 0 0
26-07-2019 29.9 (14:50) 18.2 (00:00) 24.1 10.83 (15:30) 6.94 (15:30) 20.2 0 0 20.2 0
25-07-2019 34 (14:10) 17.6 (00:00) 25.8 11.11 (15:50) 5 (15:10) 0 0 0 0 0
24-07-2019 34.9 (14:40) 18.9 (00:00) 26.9 10.83 (16:00) 4.72 (14:00) 0 0 0 0 0
23-07-2019 34.5 (15:20) 17.2 (00:00) 25.9 11.11 (17:10) 5 (16:00) 0 0 0 0 0
22-07-2019 32.7 (14:40) 17.2 (00:00) 25 10.28 (16:20) 5.56 (16:10) 0 0 0 0 0
21-07-2019 31.2 (16:30) 18.5 (00:00) 24.9 10.83 (16:20) 5.28 (17:20) 0 0 0 0 0
20-07-2019 32.8 (13:20) 16.6 (00:00) 24.7 9.72 (13:40) 5.28 (17:40) 0 0 0 0 0
19-07-2019 29.7 (16:30) 18.4 (00:00) 24.1 10.83 (15:30) 5.56 (14:40) 0 0 0 0 0
18-07-2019 29.5 (13:30) 17.2 (00:00) 23.4 11.67 (17:10) 6.11 (17:10) 0 0 0 0 0

Gráficas

Temp. máximas Temp. mínimas Temp. medias Precipitaciones Rachas de viento máximas Velocidades máximas media en intervalos de 10 minutos

Datos horarios

Fecha y hora oficial Temperatura (ºC) Velocidad del viento (km/h) Dirección del viento Racha (km/h) Dirección de racha Precipitación (mm) Presión (hPa) Tendencia (hPa) Humedad (%)
2019-08-16 23:00:00 22.2 2 Sudoeste 16 Sur 0 -- -- 85
2019-08-16 22:00:00 22.7 10 Sur 18 Sur 0 -- -- 83
2019-08-16 21:00:00 23 13 Sur 24 Sur 0 -- -- 80
2019-08-16 20:00:00 24 12 Sur 32 Sur 0 -- -- 78
2019-08-16 19:00:00 26 16 Sur 33 Sur 0 -- -- 70
2019-08-16 18:00:00 27.5 14 Sur 32 Sur 0 -- -- 63
2019-08-16 17:00:00 28.2 12 Sur 36 Sur 0 -- -- 61
2019-08-16 16:00:00 28.4 17 Sur 35 Sur 0 -- -- 61
2019-08-16 15:00:00 28.4 21 Sur 36 Sur 0 -- -- 59
2019-08-16 14:00:00 28.9 17 Sur 31 Sur 0 -- -- 54
2019-08-16 13:00:00 28.6 10 Sur 26 Sur 0 -- -- 49
2019-08-16 12:00:00 26.8 5 Sudoeste 21 Sur 0 -- -- 50
2019-08-16 11:00:00 24.6 5 Sur 14 Sur 0 -- -- 52
2019-08-16 10:00:00 21.1 2 Norte 12 Noroeste 0 -- -- 81
2019-08-16 09:00:00 19.3 5 Noroeste 9 Noroeste 0 -- -- 90
2019-08-16 08:00:00 18.2 0 Calma 3 Sur 0 -- -- 91
2019-08-16 07:00:00 18.2 0 Calma 2 Sudoeste 0 -- -- 93
2019-08-16 06:00:00 18.8 0 Calma 5 Oeste 0 -- -- 91
2019-08-16 05:00:00 19.5 0 Calma 7 Oeste 0 -- -- 90
2019-08-16 04:00:00 20.1 3 Noroeste 7 Noroeste 0 -- -- 90
2019-08-16 03:00:00 20.4 0 Calma 4 Norte 0 -- -- 88
2019-08-16 02:00:00 20.9 0 Calma 3 Sudeste 0 -- -- 85
2019-08-16 01:00:00 21.6 0 Calma 5 Sudeste -- -- -- 83
2019-08-16 00:00:00 22.3 0 Calma 6 Sudoeste 0 -- -- 80
2019-08-15 23:00:00 22.7 3 Sur 6 Sur 0 -- -- 81
2019-08-15 22:00:00 23.1 5 Sur 9 Sur 0 -- -- 79
2019-08-15 21:00:00 23.7 6 Sudoeste 18 Sudoeste 0 -- -- 78
2019-08-15 20:00:00 23.9 15 Sur 32 Sur 0 -- -- 78
2019-08-15 19:00:00 24.4 17 Sur 36 Sur 0 -- -- 77
2019-08-15 18:00:00 26.6 20 Sur 37 Sur 0 -- -- 68
2019-08-15 17:00:00 27.7 21 Sur 42 Sur 0 -- -- 64
2019-08-15 16:00:00 28.7 20 Sur 43 Sur 0 -- -- 59
2019-08-15 15:00:00 29.5 19 Sur 41 Sur 0 -- -- 54
2019-08-15 14:00:00 30 17 Sur 33 Sur 0 -- -- 48
2019-08-15 13:00:00 29.2 15 Sur 28 Sur 0 -- -- 44
2019-08-15 12:00:00 27.5 12 Sur 22 Sur 0 -- -- 42
2019-08-15 11:00:00 24.4 3 Noroeste 13 Sudoeste 0 -- -- 58
2019-08-15 10:00:00 21.6 2 Norte 12 Norte 0 -- -- 72
2019-08-15 09:00:00 18.5 6 Norte 16 Noroeste 0 -- -- 84
2019-08-15 08:00:00 18.2 8 Noroeste 12 Norte 0 -- -- 89
2019-08-15 07:00:00 18.4 6 Noroeste 12 Norte 0 -- -- 89
2019-08-15 06:00:00 18.8 5 Noroeste 10 Noroeste 0 -- -- 90
2019-08-15 05:00:00 19.2 5 Noroeste 10 Norte 0 -- -- 90
2019-08-15 04:00:00 19.7 5 Noroeste 12 Noroeste 0 -- -- 89
2019-08-15 03:00:00 20 4 Noroeste 10 Noroeste 0 -- -- 89
2019-08-15 02:00:00 20.5 4 Noroeste 8 Noroeste 0 -- -- 88
2019-08-15 01:00:00 20.9 2 Noroeste 5 Noroeste 0 -- -- 86
2019-08-15 00:00:00 21.2 0 Calma 4 Nordeste 0 -- -- 84
2019-08-14 23:00:00 22.1 2 Sudoeste 8 Sur 0 -- -- 80
2019-08-14 22:00:00 22.8 7 Sur 15 Sur 0 -- -- 77
2019-08-14 21:00:00 23.8 12 Sur 26 Sudoeste 0 -- -- 73
2019-08-14 20:00:00 25.7 13 Sur 25 Sudoeste 0 -- -- 66
2019-08-14 19:00:00 26.8 16 Sur 32 Sur 0 -- -- 62
2019-08-14 18:00:00 27.6 14 Sur 36 Sur 0 -- -- 59
2019-08-14 17:00:00 27.6 21 Sur 37 Sur 0 -- -- 59
2019-08-14 16:00:00 28.2 15 Sur 45 Sur 0 -- -- 56
2019-08-14 15:00:00 28 24 Sur 40 Sur 0 -- -- 57
2019-08-14 14:00:00 30.1 8 Noroeste 21 Noroeste 0 -- -- 27
2019-08-14 13:00:00 28.1 4 Norte 14 Sudoeste 0 -- -- 45
2019-08-14 12:00:00 25.2 3 Noroeste 6 Noroeste 0 -- -- 59
2019-08-14 11:00:00 22.2 0 Calma 5 Nordeste 0 -- -- 67
2019-08-14 10:00:00 18.6 0 Calma 10 Noroeste 0 -- -- 78
2019-08-14 09:00:00 16.2 4 Norte 17 Noroeste 0 -- -- 86
2019-08-14 08:00:00 15.8 7 Noroeste 13 Noroeste 0 -- -- 89
2019-08-14 07:00:00 16.1 5 Noroeste 13 Norte 0 -- -- 91
2019-08-14 06:00:00 16.4 8 Noroeste 12 Noroeste 0 -- -- 90
2019-08-14 05:00:00 16.7 6 Noroeste 12 Noroeste 0 -- -- 93
2019-08-14 04:00:00 17 7 Noroeste 12 Noroeste 0 -- -- 93
2019-08-14 03:00:00 17.3 4 Noroeste 11 Noroeste 0 -- -- 93
2019-08-14 02:00:00 17.6 4 Noroeste 9 Oeste 0 -- -- 95
2019-08-14 01:00:00 18 5 Noroeste 9 Noroeste 0 -- -- 94
2019-08-14 00:00:00 18 0 Calma 4 Oeste 0 -- -- 94
2019-08-13 23:00:00 18.1 0 Calma 4 Sudoeste 0 -- -- 92
2019-08-13 22:00:00 19.1 0 Calma 8 Sur 0 -- -- 88
2019-08-13 21:00:00 19.9 4 Sudoeste 11 Sur 0 -- -- 84
2019-08-13 20:00:00 20.1 7 Sur 22 Sur 0 -- -- 83
2019-08-13 19:00:00 20.2 13 Sur 27 Sur 0 -- -- 85
2019-08-13 18:00:00 20.8 3 Sur 18 Oeste 2.8 -- -- 87
2019-08-13 17:00:00 23.1 9 Nordeste 26 Sur 0.4 -- -- 69
2019-08-13 16:00:00 25.3 8 Sur 32 Sur 0 -- -- 51
2019-08-13 15:00:00 24.5 8 Sur 21 Sur 0 -- -- 50
2019-08-13 14:00:00 23.6 6 Sudeste 25 Sur 0 -- -- 52
2019-08-13 13:00:00 22.5 9 Sur 21 Sur 0 -- -- 53
2019-08-13 12:00:00 21.1 0 Calma 7 Sur 0 -- -- 52
2019-08-13 11:00:00 20 3 Oeste 13 Noroeste 0 -- -- 51
2019-08-13 10:00:00 19 3 Noroeste 9 Noroeste 0 -- -- 53
2019-08-13 09:00:00 18.5 6 Noroeste 10 Noroeste 0 -- -- 52
2019-08-13 08:00:00 18.2 5 Noroeste 13 Noroeste 0 -- -- 53
2019-08-13 07:00:00 18 8 Noroeste 13 Oeste 0 -- -- 54
2019-08-13 06:00:00 18.2 6 Oeste 15 Oeste 0 -- -- 53
2019-08-13 05:00:00 18.6 9 Noroeste 17 Oeste 0 -- -- 52
2019-08-13 04:00:00 19.3 5 Noroeste 11 Noroeste 0 -- -- 52
2019-08-13 03:00:00 20.1 6 Noroeste 14 Norte 0 -- -- 52
2019-08-13 02:00:00 20.3 0 Calma 8 Sur 0 -- -- 47
2019-08-13 01:00:00 20.9 2 Sur 18 Sur 0 -- -- 47
2019-08-13 00:00:00 20.8 3 Sudoeste 15 Sudoeste 0 -- -- 74
2019-08-12 23:00:00 21 8 Sur 16 Sur 0 -- -- 80
2019-08-12 22:00:00 21.6 8 Sur 19 Sur 0 -- -- 75
2019-08-12 21:00:00 22.6 7 Sur 21 Sur 0 -- -- 71
2019-08-12 20:00:00 23.3 13 Sur 28 Sur 0 -- -- 64
2019-08-12 19:00:00 24.3 9 Sur 30 Sur 0 -- -- 59
2019-08-12 18:00:00 25.6 20 Sur 33 Sur 0 -- -- 52
2019-08-12 17:00:00 26.2 20 Sur 36 Sur 0 -- -- 48
2019-08-12 16:00:00 25.9 16 Sur 34 Sur 0 -- -- 47
2019-08-12 15:00:00 27.6 20 Sur 31 Sur 0 -- -- 42
2019-08-12 14:00:00 28.3 3 Sudoeste 13 Nordeste 0 -- -- 37
2019-08-12 13:00:00 26.9 6 Norte 12 Norte 0 -- -- 41
2019-08-12 12:00:00 25.9 4 Norte 11 Noroeste 0 -- -- 43
2019-08-12 11:00:00 23.4 5 Norte 16 Noroeste 0 -- -- 51
2019-08-12 10:00:00 20.8 7 Noroeste 16 Noroeste 0 -- -- 57
2019-08-12 09:00:00 19.6 7 Noroeste 21 Noroeste 0 -- -- 61
2019-08-12 08:00:00 19.4 9 Noroeste 17 Noroeste 0 -- -- 61
2019-08-12 07:00:00 19.9 6 Noroeste 13 Noroeste 0 -- -- 61
2019-08-12 06:00:00 20.5 7 Noroeste 14 Norte 0 -- -- 63
2019-08-12 05:00:00 21.2 7 Noroeste 22 Noroeste 0 -- -- 69
2019-08-12 04:00:00 21.7 0 Calma 9 Sudeste 0 -- -- 89
2019-08-12 03:00:00 21.6 0 Calma 5 Oeste 0 -- -- 89
2019-08-12 02:00:00 22.1 0 Calma 7 Norte 0 -- -- 90
2019-08-12 01:00:00 23 0 Calma 5 Sur 0 -- -- 88
2019-08-12 00:00:00 23.6 5 Sur 11 Sur 0 -- -- 86
2019-08-11 23:00:00 23.9 7 Sur 18 Sur 0 -- -- 85
2019-08-11 22:00:00 24.2 12 Sur 21 Sur 0 -- -- 84
2019-08-11 21:00:00 25.1 8 Sur 27 Sudoeste 0 -- -- 79
2019-08-11 20:00:00 26 12 Sur 28 Sur 0 -- -- 72
2019-08-11 19:00:00 27.5 15 Sur 26 Sur 0 -- -- 68
2019-08-11 18:00:00 29.5 13 Sur 32 Sur 0 -- -- 62
2019-08-11 17:00:00 29.9 12 Sur 37 Sur 0 -- -- 59
2019-08-11 16:00:00 29.8 16 Sur 43 Sur 0 -- -- 60
2019-08-11 15:00:00 31 20 Sur 33 Sur 0 -- -- 52
2019-08-11 14:00:00 31.2 14 Noroeste 23 Noroeste 0 -- -- 33
2019-08-11 13:00:00 30.6 8 Sudoeste 17 Sur 0 -- -- 48
2019-08-11 12:00:00 28.7 10 Sur 21 Sur 0 -- -- 55
2019-08-11 11:00:00 25.4 3 Noroeste 6 Noroeste 0 -- -- 67
2019-08-11 10:00:00 22.9 2 Nordeste 6 Noroeste 0 -- -- 75
2019-08-11 09:00:00 20.2 4 Noroeste 8 Noroeste 0 -- -- 82
2019-08-11 08:00:00 19.7 6 Oeste 9 Noroeste 0 -- -- 84
2019-08-11 07:00:00 19.6 4 Noroeste 13 Noroeste 0 -- -- 84
2019-08-11 06:00:00 20.1 0 Calma 6 Oeste 0 -- -- 81
2019-08-11 05:00:00 20.4 0 Calma 8 Noroeste 0 -- -- 80
2019-08-11 04:00:00 20.7 5 Noroeste 8 Noroeste 0 -- -- 80
2019-08-11 03:00:00 21.4 0 Calma 6 Noroeste 0 -- -- 78
2019-08-11 02:00:00 22.1 2 Noroeste 6 Noroeste 0 -- -- 77
2019-08-11 01:00:00 22.7 2 Noroeste 5 Oeste 0 -- -- 76
2019-08-11 00:00:00 23.5 0 Calma 5 Nordeste 0 -- -- 74
2019-08-10 23:00:00 24.2 2 Sur 9 Sur 0 -- -- 72
2019-08-10 22:00:00 24.9 6 Sur 19 Sudoeste 0 -- -- 69
2019-08-10 21:00:00 25.7 9 Sur 28 Sur 0 -- -- 69
2019-08-10 20:00:00 27.6 14 Sur 32 Sur 0 -- -- 67
2019-08-10 19:00:00 29.4 13 Sur 33 Sudoeste 0 -- -- 60
2019-08-10 18:00:00 30.8 14 Sur 31 Sur 0 -- -- 56
2019-08-10 17:00:00 31.2 12 Sur 35 Sur 0 -- -- 55
2019-08-10 16:00:00 31.2 17 Sur 34 Sur 0 -- -- 53
2019-08-10 15:00:00 30.9 18 Sur 36 Sudoeste 0 -- -- 51
2019-08-10 14:00:00 31.2 15 Sur 35 Sur 0 -- -- 48
2019-08-10 13:00:00 30.4 15 Sur 41 Sudoeste 0 -- -- 56
2019-08-10 12:00:00 31.6 15 Sur 27 Sur 0 -- -- 43
2019-08-10 11:00:00 29.5 3 Sudoeste 6 Sur 0 -- -- 45
2019-08-10 10:00:00 25.2 2 Norte 3 Oeste 0 -- -- 55
2019-08-10 09:00:00 22.1 2 Noroeste 5 Norte 0 -- -- 65
2019-08-10 08:00:00 21.8 2 Norte 6 Nordeste 0 -- -- 65
2019-08-10 07:00:00 22.8 3 Noroeste 13 Norte 0 -- -- 61
2019-08-10 06:00:00 23.3 4 Noroeste 10 Noroeste 0 -- -- 63
2019-08-10 05:00:00 24.7 4 Noroeste 13 Noroeste 0 -- -- 56
2019-08-10 04:00:00 25.7 9 Noroeste 20 Noroeste 0 -- -- 54
2019-08-10 03:00:00 25.3 3 Norte 9 Noroeste 0 -- -- 54
2019-08-10 02:00:00 25.8 5 Oeste 8 Oeste 0 -- -- 48
2019-08-10 01:00:00 27.7 0 Calma 8 Norte 0 -- -- 43
2019-08-10 00:00:00 30 4 Noroeste 31 Noroeste 0 -- -- 44
2019-08-09 23:00:00 32.1 12 Noroeste 27 Noroeste 0 -- -- 33
2019-08-09 22:00:00 32.8 10 Noroeste 29 Oeste 0 -- -- 30
2019-08-09 21:00:00 33.7 9 Noroeste 25 Noroeste 0 -- -- 30
2019-08-09 20:00:00 36 13 Noroeste 31 Noroeste 0 -- -- 25
2019-08-09 19:00:00 36.7 18 Noroeste 36 Norte 0 -- -- 25
2019-08-09 18:00:00 37.5 11 Noroeste 31 Noroeste 0 -- -- 22
2019-08-09 17:00:00 37.6 8 Noroeste 26 Oeste 0 -- -- 24
2019-08-09 16:00:00 37.8 10 Noroeste 29 Oeste 0 -- -- 22
2019-08-09 15:00:00 36.4 10 Norte 27 Noroeste 0 -- -- 25
2019-08-09 14:00:00 35.1 12 Norte 25 Noroeste 0 -- -- 27
2019-08-09 13:00:00 34.6 8 Norte 18 Noroeste 0 -- -- 28
2019-08-09 12:00:00 33.2 3 Oeste 13 Norte 0 -- -- 28
2019-08-09 11:00:00 27.5 0 Calma 4 Nordeste 0 -- -- 46
2019-08-09 10:00:00 24.1 2 Norte 5 Norte 0 -- -- 54
2019-08-09 09:00:00 20.1 2 Norte 16 Noroeste 0 -- -- 66
2019-08-09 08:00:00 19.8 10 Noroeste 17 Noroeste 0 -- -- 70
2019-08-09 07:00:00 19.5 5 Noroeste 14 Noroeste 0 -- -- 74
2019-08-09 06:00:00 20 5 Noroeste 12 Noroeste 0 -- -- 73
2019-08-09 05:00:00 20.8 5 Noroeste 14 Noroeste 0 -- -- 70
2019-08-09 04:00:00 21 5 Noroeste 13 Noroeste 0 -- -- 71
2019-08-09 03:00:00 21.4 5 Noroeste 12 Norte 0 -- -- 71
2019-08-09 02:00:00 22 5 Noroeste 10 Noroeste 0 -- -- 69
2019-08-09 01:00:00 22.5 4 Noroeste 10 Noroeste 0 -- -- 68
2019-08-09 00:00:00 23.4 2 Noroeste 6 Norte 0 -- -- 66
2019-08-08 23:00:00 24.4 0 Calma 6 Norte 0 -- -- 61
2019-08-08 22:00:00 25.8 2 Sur 13 Sur 0 -- -- 54
2019-08-08 21:00:00 27.4 10 Sur 21 Sudoeste 0 -- -- 50
2019-08-08 20:00:00 29.2 14 Sur 26 Sur 0 -- -- 46
2019-08-08 19:00:00 30.7 12 Sur 35 Sudoeste 0 -- -- 43
2019-08-08 18:00:00 31.3 15 Sur 33 Sur 0 -- -- 42
2019-08-08 17:00:00 33 17 Sur 38 Sur 0 -- -- 38
2019-08-08 16:00:00 33.8 13 Sur 35 Sur 0 -- -- 36
2019-08-08 15:00:00 32.8 19 Sur 36 Sur 0 -- -- 38
2019-08-08 14:00:00 34 12 Sudoeste 26 Sur 0 -- -- 33
2019-08-08 13:00:00 32.7 6 Norte 13 Norte 0 -- -- 27
2019-08-08 12:00:00 30.9 7 Norte 18 Noroeste 0 -- -- 30
2019-08-08 11:00:00 29.3 2 Nordeste 7 Norte 0 -- -- 35
2019-08-08 10:00:00 25.1 0 Calma 6 Nordeste 0 -- -- 48
2019-08-08 09:00:00 20.4 3 Norte 8 Oeste 0 -- -- 64
2019-08-08 08:00:00 19.8 5 Noroeste 9 Noroeste 0 -- -- 70
2019-08-08 07:00:00 19.9 0 Calma 5 Este 0 -- -- 80
2019-08-08 06:00:00 20.9 0 Calma 17 Noroeste 0 -- -- 81
2019-08-08 05:00:00 21.2 0 Calma 8 Noroeste 0 -- -- 89
2019-08-08 04:00:00 21.9 3 Oeste 8 Oeste 0 -- -- 87
2019-08-08 03:00:00 22.4 0 Calma 3 Noroeste 0 -- -- 86
2019-08-08 02:00:00 23.3 0 Calma 4 Sudeste 0 -- -- 83
2019-08-08 01:00:00 23.7 3 Sur 7 Sudeste 0 -- -- 83
2019-08-08 00:00:00 24.1 2 Sur 4 Sur 0 -- -- 81
2019-08-07 23:00:00 24.3 5 Sur 14 Sur 0 -- -- 80
2019-08-07 22:00:00 24.9 10 Sur 17 Sur 0 -- -- 78
2019-08-07 21:00:00 25.4 7 Sur 24 Sur 0 -- -- 75
2019-08-07 20:00:00 26.4 12 Sur 33 Sur 0 -- -- 72
2019-08-07 19:00:00 28 19 Sur 36 Sur 0 -- -- 67
2019-08-07 18:00:00 30 18 Sur 30 Sudoeste 0 -- -- 59
2019-08-07 17:00:00 32.1 10 Sur 29 Sur 0 -- -- 44
2019-08-07 16:00:00 31.6 11 Sur 27 Sur 0 -- -- 49
2019-08-07 15:00:00 33.4 5 Noroeste 15 Noroeste 0 -- -- 24
2019-08-07 14:00:00 31.8 6 Noroeste 23 Norte 0 -- -- 26
2019-08-07 13:00:00 31.3 13 Noroeste 29 Noroeste 0 -- -- 29
2019-08-07 12:00:00 27 0 Calma 6 Noroeste 0 -- -- 43
2019-08-07 11:00:00 23.2 2 Noroeste 9 Noroeste 0 -- -- 56
2019-08-07 10:00:00 20.9 0 Calma 11 Noroeste 0 -- -- 64
2019-08-07 09:00:00 19.7 6 Noroeste 14 Noroeste 0 -- -- 68
2019-08-07 08:00:00 19.3 7 Noroeste 16 Noroeste 0 -- -- 71
2019-08-07 07:00:00 19.3 5 Noroeste 15 Noroeste 0 -- -- 72
2019-08-07 06:00:00 19.5 8 Noroeste 14 Norte 0 -- -- 77
2019-08-07 05:00:00 19.7 8 Norte 13 Norte 0 -- -- 80
2019-08-07 04:00:00 20.3 7 Noroeste 11 Noroeste 0 -- -- 83
2019-08-07 03:00:00 20.9 3 Noroeste 10 Noroeste 0 -- -- 84
2019-08-07 02:00:00 21.7 6 Noroeste 11 Norte 0 -- -- 84
2019-08-07 01:00:00 22.5 3 Noroeste 5 Noroeste 0 -- -- 88
2019-08-07 00:00:00 23.1 0 Calma 5 Noroeste 0 -- -- 86
2019-08-06 23:00:00 23.9 3 Sudeste 4 Sur 0 -- -- 85
2019-08-06 22:00:00 24.6 3 Sur 18 Sur 0 -- -- 83
2019-08-06 21:00:00 25.5 12 Sur 24 Sudoeste 0 -- -- 79
2019-08-06 20:00:00 27.3 11 Sur 33 Sur 0 -- -- 73
2019-08-06 19:00:00 29.4 12 Sur 28 Sudoeste 0 -- -- 65
2019-08-06 18:00:00 31.6 17 Sur 32 Sur 0 -- -- 57
2019-08-06 17:00:00 33.3 9 Sudoeste 27 Sudoeste 0 -- -- 49
2019-08-06 16:00:00 32.8 12 Sur 31 Sur 0 -- -- 52
2019-08-06 15:00:00 32 12 Sur 30 Sur 0 -- -- 56
2019-08-06 14:00:00 31 17 Sur 31 Sudoeste 0 -- -- 57
2019-08-06 13:00:00 29.5 13 Sur 33 Sur 0 -- -- 61
2019-08-06 12:00:00 27.6 18 Sur 27 Sur 0 -- -- 65
2019-08-06 11:00:00 25.7 15 Sur 24 Sur 0 -- -- 70
2019-08-06 10:00:00 24 5 Sur 12 Sur 0 -- -- 72
2019-08-06 09:00:00 20.3 0 Calma 7 Norte 0 -- -- 84
2019-08-06 08:00:00 19.9 3 Noroeste 10 Norte 0 -- -- 86
2019-08-06 07:00:00 19.9 4 Noroeste 7 Oeste 0 -- -- 89
2019-08-06 06:00:00 20.4 0 Calma 8 Norte 0 -- -- 88
2019-08-06 05:00:00 20.9 4 Noroeste 9 Noroeste 0 -- -- 87
2019-08-06 04:00:00 21.2 3 Oeste 7 Noroeste 0 -- -- 87
2019-08-06 03:00:00 21.3 3 Noroeste 8 Oeste 0 -- -- 88
2019-08-06 02:00:00 21.4 2 Noroeste 4 Oeste 0 -- -- 88
2019-08-06 01:00:00 21.7 0 Calma 5 Nordeste 0 -- -- 87
2019-08-06 00:00:00 22.1 3 Noroeste 8 Sur 0 -- -- 87
2019-08-05 23:00:00 22.6 2 Sudoeste 17 Sur 0 -- -- 86
2019-08-05 22:00:00 23.2 9 Sur 22 Sudoeste 0 -- -- 83
2019-08-05 21:00:00 25 10 Sur 28 Sur 0 -- -- 74
2019-08-05 20:00:00 27.2 18 Sur 32 Sur 0 -- -- 62
2019-08-05 19:00:00 29.1 18 Sur 35 Sur 0 -- -- 57
2019-08-05 18:00:00 31 14 Sur 33 Sur 0 -- -- 56
2019-08-05 17:00:00 31.6 18 Sur 32 Sur 0 -- -- 53
2019-08-05 16:00:00 32.2 15 Sur 34 Sur 0 -- -- 49
2019-08-05 15:00:00 31.3 18 Sur 32 Sudoeste 0 -- -- 49
2019-08-05 14:00:00 30.4 13 Sur 28 Sur 0 -- -- 46
2019-08-05 13:00:00 29.4 15 Sur 31 Sur 0 -- -- 46
2019-08-05 12:00:00 27.9 11 Sur 24 Sudoeste 0 -- -- 49
2019-08-05 11:00:00 25.9 10 Sur 25 Sur 0 -- -- 55
2019-08-05 10:00:00 23.1 4 Oeste 10 Sur 0 -- -- 65
2019-08-05 09:00:00 19.7 2 Norte 11 Noroeste 0 -- -- 77
2019-08-05 08:00:00 19 7 Noroeste 11 Noroeste 0 -- -- 80
2019-08-05 07:00:00 19.1 7 Noroeste 12 Norte 0 -- -- 82
2019-08-05 06:00:00 19.3 6 Noroeste 14 Noroeste 0 -- -- 82
2019-08-05 05:00:00 19.5 6 Noroeste 13 Noroeste 0 -- -- 83
2019-08-05 04:00:00 19.9 3 Noroeste 8 Norte 0 -- -- 83
2019-08-05 03:00:00 20.1 0 Calma 6 Noroeste 0 -- -- 82
2019-08-05 02:00:00 20.3 0 Calma 5 Noroeste 0 -- -- 82
2019-08-05 01:00:00 21 0 Calma 4 Norte 0 -- -- 79
2019-08-05 00:00:00 21.9 0 Calma 5 Sur 0 -- -- 77
2019-08-04 23:00:00 22.9 0 Calma 12 Sur 0 -- -- 74
2019-08-04 22:00:00 23.6 9 Sur 22 Sur 0 -- -- 73
2019-08-04 21:00:00 25 15 Sur 27 Sur 0 -- -- 71
2019-08-04 20:00:00 27.9 14 Sur 29 Sur 0 -- -- 60
2019-08-04 19:00:00 29.3 15 Sur 30 Sur 0 -- -- 54
2019-08-04 18:00:00 30.1 15 Sur 30 Sur 0 -- -- 56
2019-08-04 17:00:00 30.4 15 Sur 39 Sur 0 -- -- 55
2019-08-04 16:00:00 30.5 16 Sur 31 Sur 0 -- -- 57
2019-08-04 15:00:00 30.3 15 Sur 35 Sur 0 -- -- 56
2019-08-04 14:00:00 30.8 12 Sur 31 Sur 0 -- -- 48
2019-08-04 13:00:00 29.7 16 Sur 31 Sur 0 -- -- 45
2019-08-04 12:00:00 28.6 11 Sur 30 Sur 0 -- -- 45
2019-08-04 11:00:00 26.1 12 Sur 21 Sur 0 -- -- 50
2019-08-04 10:00:00 22.4 0 Calma 8 Noroeste 0 -- -- 63
2019-08-04 09:00:00 19 6 Noroeste 10 Noroeste 0 -- -- 74
2019-08-04 08:00:00 18.4 4 Noroeste 13 Noroeste 0 -- -- 76
2019-08-04 07:00:00 18.5 8 Noroeste 13 Norte 0 -- -- 78
2019-08-04 06:00:00 18.8 5 Noroeste 10 Norte 0 -- -- 79
2019-08-04 05:00:00 19.3 3 Noroeste 11 Noroeste 0 -- -- 77
2019-08-04 04:00:00 19.7 5 Noroeste 11 Noroeste 0 -- -- 77
2019-08-04 03:00:00 20.1 4 Noroeste 11 Noroeste 0 -- -- 76
2019-08-04 02:00:00 20.5 5 Noroeste 9 Noroeste 0 -- -- 75
2019-08-04 01:00:00 20.7 2 Noroeste 4 Norte 0 -- -- 75
2019-08-04 00:00:00 21.7 0 Calma 4 Sur 0 -- -- 71
2019-08-03 23:00:00 22.4 3 Sur 18 Sur 0 -- -- 69
2019-08-03 22:00:00 23.4 12 Sur 23 Sur 0 -- -- 63
2019-08-03 21:00:00 25.3 14 Sur 21 Sur 0 -- -- 53
2019-08-03 20:00:00 27.2 10 Sur 28 Sur 0 -- -- 50
2019-08-03 19:00:00 28.6 13 Sur 32 Sudoeste 0 -- -- 51
2019-08-03 18:00:00 30.1 12 Sur 36 Sur 0 -- -- 51
2019-08-03 17:00:00 31.6 14 Sur 33 Sur 0 -- -- 48
2019-08-03 16:00:00 31.4 15 Sur 31 Sur 0 -- -- 48
2019-08-03 15:00:00 31.1 13 Sur 32 Sur 0 -- -- 48
2019-08-03 14:00:00 30.2 15 Sur 32 Sur 0 -- -- 48
2019-08-03 13:00:00 29.6 15 Sur 32 Sur 0 -- -- 42
2019-08-03 12:00:00 28.6 5 Sur 18 Sur 0 -- -- 45
2019-08-03 11:00:00 24.8 4 Sudoeste 14 Sudoeste 0 -- -- 54
2019-08-03 10:00:00 21.8 3 Nordeste 5 Nordeste 0 -- -- 61
2019-08-03 09:00:00 18.1 3 Norte 15 Noroeste 0 -- -- 73
2019-08-03 08:00:00 17.4 9 Noroeste 14 Noroeste 0 -- -- 77
2019-08-03 07:00:00 17.6 3 Noroeste 14 Noroeste 0 -- -- 77
2019-08-03 06:00:00 18 5 Noroeste 12 Noroeste 0 -- -- 77
2019-08-03 05:00:00 18.5 5 Noroeste 10 Norte 0 -- -- 73
2019-08-03 04:00:00 19 4 Noroeste 9 Oeste 0 -- -- 74
2019-08-03 03:00:00 19.6 2 Oeste 8 Noroeste 0 -- -- 71
2019-08-03 02:00:00 20.3 3 Noroeste 8 Oeste 0 -- -- 70
2019-08-03 01:00:00 20.8 2 Noroeste 6 Noroeste 0 -- -- 68
2019-08-03 00:00:00 21.5 2 Noroeste 9 Nordeste 0 -- -- 67
2019-08-02 23:00:00 22.4 3 Nordeste 11 Sur 0 -- -- 64
2019-08-02 22:00:00 23.8 7 Sur 14 Sur 0 -- -- 57
2019-08-02 21:00:00 25.5 9 Sur 21 Sur 0 -- -- 50
2019-08-02 20:00:00 27.3 12 Sur 28 Sur 0 -- -- 45
2019-08-02 19:00:00 28 12 Sur 31 Sur 0 -- -- 43
2019-08-02 18:00:00 28.3 14 Sur 37 Sur 0 -- -- 44
2019-08-02 17:00:00 28.5 16 Sur 44 Sur 0 -- -- 43
2019-08-02 16:00:00 28.7 19 Sur 41 Sur 0 -- -- 41
2019-08-02 15:00:00 29.7 15 Sur 36 Sur 0 -- -- 38
2019-08-02 14:00:00 29.7 12 Sur 36 Sur 0 -- -- 40
2019-08-02 13:00:00 28.9 17 Sur 32 Sur 0 -- -- 48
2019-08-02 12:00:00 27.9 9 Sur 18 Sur 0 -- -- 54
2019-08-02 11:00:00 25.1 0 Calma 4 Nordeste 0 -- -- 64
2019-08-02 10:00:00 22.4 2 Nordeste 4 Nordeste 0 -- -- 75
2019-08-02 09:00:00 18.9 0 Calma 13 Noroeste 0 -- -- 88
2019-08-02 08:00:00 18.2 5 Noroeste 10 Noroeste 0 -- -- 90
2019-08-02 07:00:00 18.5 4 Noroeste 11 Noroeste 0 -- -- 90
2019-08-02 06:00:00 18.8 4 Noroeste 10 Noroeste 0 -- -- 91
2019-08-02 05:00:00 19.2 2 Sur 10 Noroeste 0 -- -- 88
2019-08-02 04:00:00 19.3 0 Calma 5 Sudeste 0 -- -- 88
2019-08-02 03:00:00 19.9 2 Sur 8 Noroeste 0 -- -- 86
2019-08-02 02:00:00 20 3 Noroeste 6 Oeste 0 -- -- 87
2019-08-02 01:00:00 20.4 0 Calma 3 Sudoeste 0 -- -- 83
2019-08-02 00:00:00 20.8 2 Sur 5 Norte 0 -- -- 82
2019-08-01 23:00:00 21.4 2 Sur 16 Sudoeste 0 -- -- 80
2019-08-01 22:00:00 22.4 10 Sur 26 Sur 0 -- -- 76
2019-08-01 21:00:00 24.2 14 Sur 26 Sur 0 -- -- 69
2019-08-01 20:00:00 27.2 13 Sur 23 Sur 0 -- -- 61
2019-08-01 19:00:00 27.1 14 Sur 22 Sur 0 -- -- 62
2019-08-01 18:00:00 26.6 9 Sur 30 Sur 0 -- -- 64
2019-08-01 17:00:00 27.1 16 Sur 35 Sur 0 -- -- 63
2019-08-01 16:00:00 27.9 16 Sur 36 Sur 0 -- -- 60
2019-08-01 15:00:00 28.6 17 Sur 33 Sur 0 -- -- 55
2019-08-01 14:00:00 29.5 11 Sur 22 Sur 0 -- -- 46
2019-08-01 13:00:00 28.2 10 Sur 20 Sudeste 0 -- -- 43
2019-08-01 12:00:00 26.7 8 Sur 22 Sur 0 -- -- 47
2019-08-01 11:00:00 24.4 5 Sur 11 Sur 0 -- -- 56
2019-08-01 10:00:00 21.7 0 Calma 4 Nordeste 0 -- -- 74
2019-08-01 09:00:00 18.7 0 Calma 12 Noroeste 0 -- -- 87
2019-08-01 08:00:00 18.1 7 Noroeste 13 Noroeste 0 -- -- 89
2019-08-01 07:00:00 18.4 5 Noroeste 10 Noroeste 0 -- -- 90
2019-08-01 06:00:00 18.6 0 Calma 14 Noroeste 0 -- -- 90
2019-08-01 05:00:00 18.2 0 Calma 5 Noroeste 0 -- -- 92
2019-08-01 04:00:00 18.5 0 Calma 5 Este 0 -- -- 91
2019-08-01 03:00:00 19.3 3 Sudeste 6 Sudeste 0 -- -- 89
2019-08-01 02:00:00 20 2 Sur 5 Norte 0 -- -- 88
2019-08-01 01:00:00 20 3 Sur 15 Sudoeste 0 -- -- 88
2019-08-01 00:00:00 20.2 5 Sur 10 Sur 0 -- -- 88
2019-07-31 23:00:00 20.2 5 Sur 10 Sur 0 -- -- 86
2019-07-31 22:00:00 20.8 4 Sur 10 Sur 0 -- -- 82
2019-07-31 21:00:00 21.7 7 Sur 18 Sur 0 -- -- 79
2019-07-31 20:00:00 22.5 13 Sur 18 Sur 0 -- -- 76
2019-07-31 19:00:00 22.2 4 Sur 10 Sudoeste 0 -- -- 77
2019-07-31 18:00:00 22.2 4 Sudoeste 17 Sur 0 -- -- 76
2019-07-31 17:00:00 22.2 9 Sur 21 Sur 0 -- -- 76
2019-07-31 16:00:00 22.1 8 Sur 30 Sur 0 -- -- 75
2019-07-31 15:00:00 23.2 18 Sur 36 Sudoeste 0 -- -- 70
2019-07-31 14:00:00 23.8 12 Sur 32 Sur 0 -- -- 67
2019-07-31 13:00:00 24.7 13 Sur 36 Sudeste 0 -- -- 58
2019-07-31 12:00:00 24.3 18 Sur 37 Sur 0 -- -- 53
2019-07-31 11:00:00 22.7 12 Sur 25 Sur 0 -- -- 65
2019-07-31 10:00:00 21.2 14 Sur 19 Sur 0 -- -- 71
2019-07-31 09:00:00 18.8 3 Noroeste 9 Norte 0 -- -- 78
2019-07-31 08:00:00 17.9 5 Noroeste 10 Noroeste 0 -- -- 83
2019-07-31 07:00:00 17.7 5 Noroeste 13 Noroeste 0 -- -- 84
2019-07-31 06:00:00 17.2 9 Noroeste 14 Noroeste 0 -- -- 84
2019-07-31 05:00:00 17.4 4 Noroeste 9 Noroeste 0 -- -- 87
2019-07-31 04:00:00 17.3 0 Calma 5 Sudeste 0 -- -- 88
2019-07-31 03:00:00 18.6 0 Calma 6 Noroeste 0 -- -- 87
2019-07-31 02:00:00 19.6 5 Noroeste 9 Noroeste 0 -- -- 86
2019-07-31 01:00:00 19.9 0 Calma 3 Sudoeste 0 -- -- 84
2019-07-31 00:00:00 20.9 0 Calma 3 Sudoeste 0 -- -- 81
2019-07-30 23:00:00 21.7 0 Calma 5 Sur 0 -- -- 78
2019-07-30 22:00:00 22.5 2 Sudoeste 12 Sur 0 -- -- 74
2019-07-30 21:00:00 23.3 10 Sudoeste 24 Sur 0 -- -- 69
2019-07-30 20:00:00 24.1 15 Sur 27 Sur 0 -- -- 66
2019-07-30 19:00:00 25.4 15 Sur 35 Sur 0 -- -- 62
2019-07-30 18:00:00 26.8 16 Sur 43 Sudoeste 0 -- -- 58
2019-07-30 17:00:00 27.8 15 Sur 42 Sur 0 -- -- 54
2019-07-30 16:00:00 28.2 17 Sur 39 Sur 0 -- -- 52
2019-07-30 15:00:00 29.3 14 Sur 39 Sudoeste 0 -- -- 46
2019-07-30 14:00:00 28.6 9 Sur 29 Sudoeste 0 -- -- 45
2019-07-30 13:00:00 27.3 10 Sur 25 Sur 0 -- -- 47
2019-07-30 12:00:00 25.8 11 Sur 24 Sur 0 -- -- 51
2019-07-30 11:00:00 24.4 10 Sur 20 Sur 0 -- -- 56
2019-07-30 10:00:00 22.5 2 Noroeste 4 Oeste 0 -- -- 48
2019-07-30 09:00:00 19.5 3 Sudeste 8 Sudeste 0 -- -- 66
2019-07-30 08:00:00 17.9 0 Calma 4 Sudoeste 0 -- -- 75
2019-07-30 07:00:00 18.3 2 Sudeste 8 Este 0 -- -- 74
2019-07-30 06:00:00 19.6 4 Noroeste 13 Noroeste 0 -- -- 66
2019-07-30 05:00:00 19.3 4 Noroeste 10 Noroeste 0 -- -- 77
2019-07-30 04:00:00 19.5 0 Calma 10 Noroeste 0 -- -- 79
2019-07-30 03:00:00 19.9 4 Noroeste 7 Noroeste 0 -- -- 80
2019-07-30 02:00:00 20.3 2 Oeste 6 Noroeste 0 -- -- 78
2019-07-30 01:00:00 20.9 5 Noroeste 9 Oeste 0 -- -- 79
2019-07-30 00:00:00 21.7 2 Norte 6 Nordeste 0 -- -- 76
2019-07-29 23:00:00 23.1 2 Sudoeste 13 Sur 0 -- -- 71
2019-07-29 22:00:00 23.9 5 Sur 20 Sur 0 -- -- 67
2019-07-29 21:00:00 25.5 9 Sur 23 Sudoeste 0 -- -- 60
2019-07-29 20:00:00 27 15 Sur 30 Sur 0 -- -- 57
2019-07-29 19:00:00 28.2 13 Sur 32 Sur 0 -- -- 53
2019-07-29 18:00:00 29.2 17 Sur 38 Sur 0 -- -- 52
2019-07-29 17:00:00 30 14 Sur 30 Sur 0 -- -- 49
2019-07-29 16:00:00 31.2 18 Sur 33 Sur 0 -- -- 43
2019-07-29 15:00:00 31.3 17 Sur 31 Sur 0 -- -- 37
2019-07-29 14:00:00 31.3 10 Sur 29 Sur 0 -- -- 35
2019-07-29 13:00:00 30.7 11 Sur 24 Sur 0 -- -- 36
2019-07-29 12:00:00 29.2 8 Sur 15 Sur 0 -- -- 37
2019-07-29 11:00:00 24.2 2 Noroeste 4 Noroeste 0 -- -- 51
2019-07-29 10:00:00 20.8 0 Calma 14 Norte 0 -- -- 59
2019-07-29 09:00:00 17.4 8 Norte 15 Noroeste 0 -- -- 71
2019-07-29 08:00:00 15.9 10 Noroeste 15 Noroeste 0 -- -- 75
2019-07-29 07:00:00 15.9 10 Noroeste 15 Noroeste 0 -- -- 76
2019-07-29 06:00:00 16.1 5 Noroeste 15 Norte 0 -- -- 76
2019-07-29 05:00:00 16.3 6 Noroeste 15 Norte 0 -- -- 77
2019-07-29 04:00:00 17 5 Noroeste 10 Noroeste 0 -- -- 75
2019-07-29 03:00:00 17.3 6 Noroeste 14 Norte 0 -- -- 73
2019-07-29 02:00:00 17.7 8 Noroeste 16 Noroeste 0 -- -- 72
2019-07-29 01:00:00 18.3 6 Noroeste 10 Noroeste 0 -- -- 70
2019-07-29 00:00:00 18.7 2 Sur 5 Noroeste 0 -- -- 66
2019-07-28 23:00:00 19.9 0 Calma 13 Sur 0 -- -- 61
2019-07-28 22:00:00 21.2 8 Sur 22 Sur 0 -- -- 54
2019-07-28 21:00:00 22.4 13 Sur 24 Sur 0 -- -- 53
2019-07-28 20:00:00 24.6 14 Sur 32 Sur 0 -- -- 48
2019-07-28 19:00:00 25.9 12 Sur 30 Sur 0 -- -- 44
2019-07-28 18:00:00 27.3 12 Sur 34 Sur 0 -- -- 39
2019-07-28 17:00:00 27.7 7 Sur 42 Sur 0 -- -- 40
2019-07-28 16:00:00 27.8 17 Sur 34 Sur 0 -- -- 38
2019-07-28 15:00:00 29.5 5 Oeste 14 Sudoeste 0 -- -- 30
2019-07-28 14:00:00 27 8 Noroeste 13 Norte 0 -- -- 33
2019-07-28 13:00:00 26.4 5 Sudoeste 21 Sur 0 -- -- 36
2019-07-28 12:00:00 24.2 2 Sur 21 Noroeste 0 -- -- 39
2019-07-28 11:00:00 21.4 13 Noroeste 23 Norte 0 -- -- 49
2019-07-28 10:00:00 20.1 10 Norte 25 Noroeste 0 -- -- 50
2019-07-28 09:00:00 17.9 14 Noroeste 26 Noroeste 0 -- -- 60
2019-07-28 08:00:00 16.8 15 Noroeste 31 Oeste 0 -- -- 59
2019-07-28 07:00:00 16.8 11 Noroeste 40 Norte 0 -- -- 59
2019-07-28 06:00:00 17.1 21 Noroeste 39 Noroeste 0 -- -- 65
2019-07-28 05:00:00 17.3 17 Noroeste 32 Oeste 0 -- -- 60
2019-07-28 04:00:00 17.9 19 Noroeste 39 Oeste 0 -- -- 59
2019-07-28 03:00:00 18.4 20 Noroeste 39 Noroeste 0 -- -- 60
2019-07-28 02:00:00 19 17 Noroeste 34 Oeste 0 -- -- 62
2019-07-28 01:00:00 19.9 16 Noroeste 33 Oeste 0 -- -- 58
2019-07-28 00:00:00 21.1 16 Noroeste 32 Oeste 0 -- -- 55
2019-07-27 23:00:00 22.3 19 Noroeste 41 Noroeste 0 -- -- 55
2019-07-26 12:00:00 -- -- -- -- -- -- -- -- --
2019-07-26 11:00:00 -- -- -- -- -- -- -- -- --
2019-07-26 10:00:00 -- -- -- -- -- -- -- -- --
2019-07-26 09:00:00 -- -- -- -- -- -- -- -- --
2019-07-26 08:00:00 -- -- -- -- -- -- -- -- --
2019-07-26 07:00:00 -- -- -- -- -- -- -- -- --
2019-07-26 06:00:00 -- -- -- -- -- -- -- -- --
2019-07-26 05:00:00 -- -- -- -- -- -- -- -- --
2019-07-26 04:00:00 20 5 Noroeste 13 Noroeste 0 -- -- 70
2019-07-26 03:00:00 20.5 5 Noroeste 10 Noroeste 0 -- -- 68
2019-07-26 02:00:00 21.2 4 Noroeste 8 Noroeste 0 -- -- 67
2019-07-26 01:00:00 22.1 3 Noroeste 5 Noroeste 0 -- -- 65
2019-07-26 00:00:00 23 3 Norte 9 Norte 0 -- -- 63
2019-07-25 23:00:00 24.4 0 Calma 14 Sur 0 -- -- 57
2019-07-25 22:00:00 25.3 12 Sur 19 Sur 0 -- -- 54
2019-07-25 21:00:00 27.1 12 Sur 25 Sudoeste 0 -- -- 49
2019-07-25 20:00:00 29.4 12 Sur 27 Sur 0 -- -- 42
2019-07-25 19:00:00 30.4 15 Sur 30 Sur 0 -- -- 42
2019-07-25 18:00:00 31.8 12 Sur 28 Sur 0 -- -- 39
2019-07-25 17:00:00 32.9 13 Sur 36 Sur 0 -- -- 37
2019-07-25 16:00:00 33.1 16 Sur 40 Sur 0 -- -- 37
2019-07-25 15:00:00 33.4 17 Sur 32 Sudoeste 0 -- -- 37
2019-07-25 14:00:00 33.7 10 Sur 36 Sudoeste 0 -- -- 32
2019-07-25 13:00:00 32.9 11 Sur 28 Sur 0 -- -- 30
2019-07-25 12:00:00 31.2 9 Sudoeste 23 Sudoeste 0 -- -- 31
2019-07-25 11:00:00 25.6 3 Noroeste 5 Nordeste 0 -- -- 44
2019-07-25 10:00:00 22.5 2 Nordeste 10 Noroeste 0 -- -- 51
2019-07-25 09:00:00 18.8 5 Noroeste 16 Noroeste 0 -- -- 62
2019-07-25 08:00:00 17.8 8 Noroeste 17 Noroeste 0 -- -- 67
2019-07-25 07:00:00 17.8 10 Noroeste 16 Noroeste 0 -- -- 67
2019-07-25 06:00:00 18.4 10 Noroeste 16 Noroeste 0 -- -- 67
2019-07-25 05:00:00 19.1 10 Noroeste 15 Noroeste 0 -- -- 63
2019-07-25 04:00:00 19.8 7 Noroeste 13 Noroeste 0 -- -- 64
2019-07-25 03:00:00 20.5 6 Noroeste 10 Noroeste 0 -- -- 64
2019-07-25 02:00:00 21.3 3 Noroeste 9 Noroeste 0 -- -- 61
2019-07-25 01:00:00 22.3 4 Noroeste 9 Noroeste 0 -- -- 58
2019-07-25 00:00:00 23.4 2 Noroeste 6 Nordeste 0 -- -- 55
2019-07-24 23:00:00 25.1 0 Calma 15 Sur 0 -- -- 46
2019-07-24 22:00:00 26.7 8 Sur 19 Sur 0 -- -- 41
2019-07-24 21:00:00 28.8 12 Sur 30 Sur 0 -- -- 40
2019-07-24 20:00:00 31.1 14 Sur 29 Sur 0 -- -- 36
2019-07-24 19:00:00 32.5 13 Sur 30 Sur 0 -- -- 34
2019-07-24 18:00:00 33.2 14 Sur 32 Sur 0 -- -- 32
2019-07-24 17:00:00 33.8 14 Sur 39 Sur 0 -- -- 30
2019-07-24 16:00:00 34.4 15 Sur 39 Sur 0 -- -- 28
2019-07-24 15:00:00 34.9 13 Sur 34 Sur 0 -- -- 28
2019-07-24 14:00:00 34.4 17 Sur 32 Sur 0 -- -- 27
2019-07-24 13:00:00 33.9 13 Sudoeste 30 Sur 0 -- -- 28
2019-07-24 12:00:00 31.9 7 Sur 17 Sur 0 -- -- 31
2019-07-24 11:00:00 26.8 3 Norte 5 Nordeste 0 -- -- 42
2019-07-24 10:00:00 23.7 2 Nordeste 9 Noroeste 0 -- -- 48
2019-07-24 09:00:00 20.5 5 Norte 15 Noroeste 0 -- -- 57
2019-07-24 08:00:00 19.1 7 Noroeste 15 Noroeste 0 -- -- 62
2019-07-24 07:00:00 18.9 6 Noroeste 16 Noroeste 0 -- -- 64
2019-07-24 06:00:00 19.3 9 Noroeste 17 Norte 0 -- -- 63
2019-07-24 05:00:00 19.9 7 Noroeste 13 Noroeste 0 -- -- 60
2019-07-24 04:00:00 20.4 6 Noroeste 14 Norte 0 -- -- 60
2019-07-24 03:00:00 21.1 5 Noroeste 10 Noroeste 0 -- -- 58
2019-07-24 02:00:00 21.7 3 Noroeste 11 Oeste 0 -- -- 57
2019-07-24 01:00:00 22.6 2 Noroeste 10 Noroeste 0 -- -- 53
2019-07-24 00:00:00 23.7 2 Noroeste 8 Norte 0 -- -- 52
2019-07-23 23:00:00 25 0 Calma 9 Nordeste 0 -- -- 48
2019-07-23 22:00:00 27 2 Sur 13 Sur 0 -- -- 41
2019-07-23 21:00:00 29.2 9 Sur 23 Sur 0 -- -- 36
2019-07-23 20:00:00 31.7 11 Sur 24 Sudoeste 0 -- -- 31
2019-07-23 19:00:00 33.3 10 Sur 27 Sur 0 -- -- 29
2019-07-23 18:00:00 33.5 12 Sur 40 Sur 0 -- -- 30
2019-07-23 17:00:00 33.9 17 Sur 39 Sur 0 -- -- 30
2019-07-23 16:00:00 34.2 18 Sur 35 Sur 0 -- -- 30
2019-07-23 15:00:00 34.1 13 Sur 32 Sur 0 -- -- 31
2019-07-23 14:00:00 33.6 18 Sur 31 Sur 0 -- -- 32
2019-07-23 13:00:00 33.6 10 Sur 24 Sur 0 -- -- 28
2019-07-23 12:00:00 30.1 4 Sudoeste 12 Sudoeste 0 -- -- 33
2019-07-23 11:00:00 26.1 3 Nordeste 4 Norte 0 -- -- 40
2019-07-23 10:00:00 21.7 2 Noroeste 10 Noroeste 0 -- -- 50
2019-07-23 09:00:00 18.5 6 Noroeste 15 Noroeste 0 -- -- 58
2019-07-23 08:00:00 17.2 9 Noroeste 17 Norte 0 -- -- 62
2019-07-23 07:00:00 17.4 10 Noroeste 16 Noroeste 0 -- -- 61
2019-07-23 06:00:00 17.8 10 Noroeste 17 Noroeste 0 -- -- 61
2019-07-23 05:00:00 18.5 9 Norte 18 Norte 0 -- -- 60
2019-07-23 04:00:00 19.1 7 Noroeste 15 Noroeste 0 -- -- 62
2019-07-23 03:00:00 19.9 9 Noroeste 14 Noroeste 0 -- -- 59
2019-07-23 02:00:00 20.5 6 Noroeste 13 Noroeste 0 -- -- 60
2019-07-23 01:00:00 21.2 5 Noroeste 10 Noroeste 0 -- -- 60
2019-07-23 00:00:00 22.2 4 Noroeste 7 Oeste 0 -- -- 58
2019-07-22 23:00:00 23.6 3 Norte 9 Norte 0 -- -- 53
2019-07-22 22:00:00 25.8 0 Calma 5 Sur 0 -- -- 46
2019-07-22 21:00:00 27.9 3 Sur 11 Sudoeste 0 -- -- 39
2019-07-22 20:00:00 29.1 6 Sur 23 Sur 0 -- -- 37
2019-07-22 19:00:00 30.1 7 Sudoeste 28 Sur 0 -- -- 35
2019-07-22 18:00:00 29.8 20 Sur 35 Sur 0 -- -- 37
2019-07-22 17:00:00 30.3 14 Sur 37 Sur 0 -- -- 38
2019-07-22 16:00:00 32 19 Sur 36 Sudoeste 0 -- -- 37
2019-07-22 15:00:00 32.5 14 Sur 35 Sudoeste 0 -- -- 36
2019-07-22 14:00:00 31.7 10 Sur 27 Sur 0 -- -- 34
2019-07-22 13:00:00 30.4 6 Sudoeste 19 Sur 0 -- -- 34
2019-07-22 12:00:00 29.5 9 Sur 19 Sur 0 -- -- 33
2019-07-22 11:00:00 24.5 2 Noroeste 4 Noroeste 0 -- -- 49
2019-07-22 10:00:00 21.6 3 Nordeste 6 Norte 0 -- -- 53
2019-07-22 09:00:00 18.4 4 Noroeste 19 Norte 0 -- -- 64
2019-07-22 08:00:00 17.3 9 Noroeste 16 Noroeste 0 -- -- 69
2019-07-22 07:00:00 17.5 9 Noroeste 14 Noroeste 0 -- -- 72
2019-07-22 06:00:00 18 8 Noroeste 15 Noroeste 0 -- -- 71
2019-07-22 05:00:00 18.6 7 Noroeste 15 Noroeste 0 -- -- 70
2019-07-22 04:00:00 19.2 7 Noroeste 14 Noroeste 0 -- -- 69
2019-07-22 03:00:00 19.9 8 Noroeste 14 Norte 0 -- -- 68
2019-07-22 02:00:00 20.6 6 Noroeste 14 Noroeste 0 -- -- 71
2019-07-22 01:00:00 21.6 4 Noroeste 8 Noroeste 0 -- -- 68
2019-07-22 00:00:00 22.6 3 Noroeste 5 Noroeste 0 -- -- 68
2019-07-21 23:00:00 23.9 0 Calma 10 Sur 0 -- -- 61
2019-07-21 22:00:00 25.1 4 Sur 13 Sudoeste 0 -- -- 59
2019-07-21 21:00:00 27.1 9 Sur 22 Sur 0 -- -- 49
2019-07-21 20:00:00 29 13 Sur 27 Sur 0 -- -- 43
2019-07-21 19:00:00 30.1 13 Sur 32 Sur 0 -- -- 35
2019-07-21 18:00:00 30.9 14 Sur 39 Sur 0 -- -- 36
2019-07-21 17:00:00 31.1 18 Sur 39 Sur 0 -- -- 36
2019-07-21 16:00:00 30.8 15 Sur 37 Sur 0 -- -- 43
2019-07-21 15:00:00 30.6 19 Sur 36 Sur 0 -- -- 45
2019-07-21 14:00:00 30 16 Sur 36 Sur 0 -- -- 41
2019-07-21 13:00:00 29.3 12 Sur 30 Sur 0 -- -- 43
2019-07-21 12:00:00 27.7 10 Sudoeste 26 Sur 0 -- -- 47
2019-07-21 11:00:00 25.3 13 Sur 24 Sudoeste 0 -- -- 51
2019-07-21 10:00:00 21.9 3 Norte 4 Noroeste 0 -- -- 60
2019-07-21 09:00:00 19.5 2 Norte 9 Noroeste 0 -- -- 71
2019-07-21 08:00:00 18.7 5 Noroeste 13 Noroeste 0 -- -- 73
2019-07-21 07:00:00 18.7 6 Noroeste 14 Noroeste 0 -- -- 77
2019-07-21 06:00:00 19 8 Noroeste 14 Noroeste 0 -- -- 74
2019-07-21 05:00:00 19.5 6 Noroeste 14 Noroeste 0 -- -- 74
2019-07-21 04:00:00 20 6 Noroeste 10 Noroeste 0 -- -- 76
2019-07-21 03:00:00 20.7 4 Noroeste 9 Noroeste 0 -- -- 74
2019-07-21 02:00:00 21.3 3 Noroeste 7 Oeste 0 -- -- 73
2019-07-21 01:00:00 22.1 0 Calma 5 Noroeste 0 -- -- 68
2019-07-21 00:00:00 22.8 0 Calma 5 Norte 0 -- -- 63
2019-07-20 23:00:00 23.4 3 Norte 5 Norte 0 -- -- 66
2019-07-20 22:00:00 24.2 2 Sur 17 Sur 0 -- -- 57
2019-07-20 21:00:00 25.4 10 Sur 26 Sur 0 -- -- 57
2019-07-20 20:00:00 26.7 12 Sur 30 Sur 0 -- -- 58
2019-07-20 19:00:00 28 17 Sur 33 Sur 0 -- -- 54
2019-07-20 18:00:00 29.3 18 Sur 33 Sudoeste 0 -- -- 48
2019-07-20 17:00:00 30.9 15 Sur 34 Sur 0 -- -- 43
2019-07-20 16:00:00 30.7 16 Sur 33 Sur 0 -- -- 46
2019-07-20 15:00:00 31.3 13 Sur 34 Sur 0 -- -- 45
2019-07-20 14:00:00 32 15 Sur 35 Sur 0 -- -- 37
2019-07-20 13:00:00 32.6 6 Oeste 26 Sudoeste 0 -- -- 32
2019-07-20 12:00:00 29.5 6 Sur 14 Sur 0 -- -- 36
2019-07-20 11:00:00 25.2 3 Norte 5 Nordeste 0 -- -- 50
2019-07-20 10:00:00 21.8 0 Calma 10 Noroeste 0 -- -- 63
2019-07-20 09:00:00 18.4 7 Norte 15 Noroeste 0 -- -- 75
2019-07-20 08:00:00 16.7 10 Norte 15 Norte 0 -- -- 83
2019-07-20 07:00:00 16.7 8 Noroeste 15 Noroeste 0 -- -- 86
2019-07-20 06:00:00 16.9 9 Noroeste 13 Noroeste 0 -- -- 86
2019-07-20 05:00:00 17.6 8 Noroeste 12 Norte 0 -- -- 83
2019-07-20 04:00:00 18.2 6 Noroeste 13 Norte 0 -- -- 82
2019-07-20 03:00:00 18.8 4 Noroeste 11 Noroeste 0 -- -- 80
2019-07-20 02:00:00 19.6 4 Noroeste 8 Noroeste 0 -- -- 77
2019-07-20 01:00:00 20.3 3 Noroeste 6 Oeste 0 -- -- 75
2019-07-20 00:00:00 20.9 3 Norte 6 Norte 0 -- -- 73
2019-07-19 23:00:00 21.9 0 Calma 10 Sur 0 -- -- 68
2019-07-19 22:00:00 22.8 9 Sur 20 Sur 0 -- -- 63
2019-07-19 21:00:00 24.7 8 Sur 23 Sur 0 -- -- 54
2019-07-19 20:00:00 26.1 13 Sur 29 Sur 0 -- -- 50
2019-07-19 19:00:00 28.2 13 Sur 36 Sur 0 -- -- 47
2019-07-19 18:00:00 29.2 14 Sur 32 Sur 0 -- -- 45
2019-07-19 17:00:00 29.4 14 Sur 37 Sur 0 -- -- 47
2019-07-19 16:00:00 29.4 16 Sur 39 Sur 0 -- -- 48
2019-07-19 15:00:00 29.6 16 Sur 39 Sudoeste 0 -- -- 42
2019-07-19 14:00:00 29.4 13 Sur 31 Sudoeste 0 -- -- 41
2019-07-19 13:00:00 28.7 13 Sur 35 Sur 0 -- -- 40
2019-07-19 12:00:00 27.6 10 Sur 26 Sur 0 -- -- 48
2019-07-19 11:00:00 25.6 12 Sur 22 Sur 0 -- -- 52
2019-07-19 10:00:00 22.4 2 Norte 5 Nordeste 0 -- -- 72
2019-07-19 09:00:00 19.5 3 Norte 11 Noroeste 0 -- -- 81
2019-07-19 08:00:00 18.4 8 Noroeste 13 Noroeste 0 -- -- 87
2019-07-19 07:00:00 18.5 8 Noroeste 12 Noroeste 0 -- -- 87
2019-07-19 06:00:00 19 5 Noroeste 13 Noroeste 0 -- -- 87
2019-07-19 05:00:00 19.4 5 Noroeste 12 Norte 0 -- -- 85
2019-07-19 04:00:00 19.7 3 Noroeste 8 Noroeste 0 -- -- 84
2019-07-19 03:00:00 20.1 4 Noroeste 8 Noroeste 0 -- -- 82
2019-07-19 02:00:00 20.6 5 Noroeste 12 Noroeste 0 -- -- 81
2019-07-19 01:00:00 21 3 Noroeste 8 Noroeste 0 -- -- 78
2019-07-19 00:00:00 21.3 0 Calma 3 Sudoeste 0 -- -- 71
2019-07-18 23:00:00 22.2 0 Calma 14 Sur 0 -- -- 65
2019-07-18 22:00:00 23 3 Sur 21 Sur 0 -- -- 65
2019-07-18 21:00:00 24.5 14 Sur 23 Sur 0 -- -- 62
2019-07-18 20:00:00 26.3 9 Sur 31 Sur 0 -- -- 60
2019-07-18 19:00:00 26.5 19 Sur 33 Sur 0 -- -- 59
2019-07-18 18:00:00 27.2 18 Sur 42 Sur 0 -- -- 56
2019-07-18 17:00:00 28 18 Sur 37 Sur 0 -- -- 56
2019-07-18 16:00:00 28.9 12 Sur 36 Sur 0 -- -- 52
2019-07-18 15:00:00 29.1 17 Sur 36 Sur 0 -- -- 50
2019-07-18 14:00:00 29.3 14 Sur 29 Sur 0 -- -- 48
2019-07-18 13:00:00 28.8 11 Sur 22 Sur 0 -- -- 46
2019-07-18 12:00:00 27.1 6 Sur 20 Sur 0 -- -- 51
2019-07-18 11:00:00 24.4 5 Sur 12 Sudoeste 0 -- -- 59
2019-07-18 10:00:00 21.2 2 Norte 4 Norte 0 -- -- 73
2019-07-18 09:00:00 18.4 3 Norte 12 Noroeste 0 -- -- 86
2019-07-18 08:00:00 17.2 7 Norte 10 Norte 0 -- -- 91
2019-07-18 07:00:00 17.3 2 Sudoeste 10 Noroeste 0 -- -- 90
2019-07-18 06:00:00 17.8 6 Noroeste 11 Noroeste 0 -- -- 91
2019-07-18 05:00:00 17.9 8 Noroeste 13 Norte 0 -- -- 90
2019-07-18 04:00:00 18.2 0 Calma 8 Noroeste 0 -- -- 89
2019-07-18 03:00:00 18.7 2 Noroeste 9 Noroeste 0 -- -- 88
2019-07-18 02:00:00 19.3 2 Noroeste 12 Noroeste 0 -- -- 86
2019-07-18 01:00:00 19.8 4 Noroeste 12 Oeste 0 -- -- 86
2019-07-18 00:00:00 20.2 4 Noroeste 9 Oeste 0 -- -- 84